Time;durP1;ratioP1;P1;durP2;ratioP2;P2;SDS_P1;SDS_P2;PMS_P1;PMS_P2;Temp;Humidity;BMP_temperature;BMP_pressure;BME280_temperature;BME280_humidity;BME280_pressure;Samples;Min_cycle;Max_cycle;Signal;HPM_P1;HPM_P2
2021/06/24 00:00:46;;;;;;;8.63;4.20;;;;;;;14.77;92.48;101855.91;6275449;28;20057;-75
2021/06/24 00:03:48;;;;;;;12.35;4.18;;;;;;;14.78;91.76;101850.53;6275483;28;20052;-75
2021/06/24 00:06:50;;;;;;;17.42;4.93;;;;;;;14.86;90.59;101868.66;6275475;28;20488;-75
2021/06/24 00:09:51;;;;;;;16.40;4.70;;;;;;;14.79;90.36;101876.06;6275041;28;20052;-76
2021/06/24 00:12:52;;;;;;;14.15;4.82;;;;;;;14.71;92.66;101884.38;6275461;28;20060;-76
2021/06/24 00:15:56;;;;;;;15.10;4.45;;;;;;;14.74;93.33;101880.75;6275243;28;20053;-75
2021/06/24 00:18:57;;;;;;;11.65;4.45;;;;;;;14.78;92.58;101894.69;6275424;28;20052;-76
2021/06/24 00:21:59;;;;;;;12.10;4.78;;;;;;;14.81;93.61;101905.09;6275417;28;20052;-75
2021/06/24 00:25:00;;;;;;;12.82;4.55;;;;;;;14.80;92.01;101911.31;6275309;28;20049;-76
2021/06/24 00:28:02;;;;;;;12.85;4.97;;;;;;;14.69;92.71;101915.38;6273339;28;20049;-76
2021/06/24 00:31:04;;;;;;;10.05;4.35;;;;;;;14.69;92.93;101901.28;6274922;28;20057;-76
2021/06/24 00:34:06;;;;;;;15.25;4.47;;;;;;;14.69;93.63;101898.66;6273422;28;20049;-76
2021/06/24 00:37:07;;;;;;;10.07;4.72;;;;;;;14.71;93.40;101902.91;6274625;28;20052;-75
2021/06/24 00:40:11;;;;;;;14.38;4.95;;;;;;;14.74;94.37;101896.63;6275022;28;20048;-76
2021/06/24 00:43:15;;;;;;;9.77;3.65;;;;;;;14.80;92.31;101896.28;6274692;28;20492;-76
2021/06/24 00:46:18;;;;;;;12.95;4.47;;;;;;;14.80;93.13;101896.28;6274467;28;20408;-76
2021/06/24 00:49:20;;;;;;;12.27;4.38;;;;;;;14.82;91.41;101890.94;6274046;28;20401;-76
2021/06/24 00:52:21;;;;;;;11.80;4.30;;;;;;;14.75;91.93;101886.88;6274288;28;20593;-76
2021/06/24 00:55:39;;;;;;;14.35;4.20;;;;;;;14.71;93.28;101888.81;6274730;28;20049;-76
2021/06/24 00:58:41;;;;;;;7.85;3.97;;;;;;;14.87;91.27;101880.94;6272777;28;20049;-76
2021/06/24 01:01:44;;;;;;;10.40;4.03;;;;;;;14.74;91.97;101869.31;6273803;28;20072;-77
2021/06/24 01:04:45;;;;;;;12.65;4.50;;;;;;;14.78;91.16;101866.41;6274463;28;20045;-77
2021/06/24 01:07:47;;;;;;;14.73;4.38;;;;;;;14.65;92.87;101875.94;6273915;28;20056;-77
2021/06/24 01:10:49;;;;;;;14.18;4.57;;;;;;;14.75;92.46;101878.94;6274313;28;20049;-77
2021/06/24 01:13:52;;;;;;;10.70;4.32;;;;;;;14.73;92.47;101881.69;6274052;28;20048;-76
2021/06/24 01:16:54;;;;;;;12.55;4.95;;;;;;;14.75;91.85;101879.78;6273757;28;20044;-75
2021/06/24 01:19:56;;;;;;;14.55;5.10;;;;;;;14.62;93.58;101866.34;6273932;28;20533;-76
2021/06/24 01:22:57;;;;;;;11.18;4.25;;;;;;;14.63;93.64;101864.59;6274142;28;20187;-76
2021/06/24 01:26:00;;;;;;;10.93;4.30;;;;;;;14.73;94.64;101865.81;6273721;28;20052;-77
2021/06/24 01:29:01;;;;;;;12.75;4.65;;;;;;;14.66;93.41;101867.06;6271652;28;20049;-76
2021/06/24 01:32:04;;;;;;;11.63;4.90;;;;;;;14.69;94.38;101866.91;6273741;28;20045;-76
2021/06/24 01:35:06;;;;;;;10.75;4.93;;;;;;;14.62;94.61;101865.50;6273918;28;20049;-76
2021/06/24 01:38:09;;;;;;;17.77;5.68;;;;;;;14.60;94.31;101876.16;6273530;28;20052;-75
2021/06/24 01:41:13;;;;;;;12.68;4.57;;;;;;;14.58;95.60;101882.47;6273258;28;20496;-77
2021/06/24 01:44:28;;;;;;;9.90;4.93;;;;;;;14.56;95.41;101871.13;6273796;28;20056;-76
2021/06/24 01:47:29;;;;;;;16.13;6.10;;;;;;;14.64;96.02;101876.88;6273243;28;20045;-76
2021/06/24 01:50:31;;;;;;;18.30;5.70;;;;;;;14.65;96.18;101870.63;6273180;28;20041;-75
2021/06/24 01:53:33;;;;;;;11.93;5.60;;;;;;;14.59;95.30;101863.03;6273140;28;20053;-76
2021/06/24 01:56:38;;;;;;;13.38;5.63;;;;;;;14.65;96.28;101863.56;6272741;28;20408;-76
2021/06/24 01:59:40;;;;;;;12.57;5.40;;;;;;;14.66;95.26;101859.97;6270813;28;20401;-77
2021/06/24 02:02:41;;;;;;;15.15;6.60;;;;;;;14.66;95.86;101852.03;6272012;28;20049;-76
2021/06/24 02:05:44;;;;;;;14.75;6.90;;;;;;;14.71;95.52;101852.63;6272974;28;20053;-77
2021/06/24 02:08:46;;;;;;;18.88;6.50;;;;;;;14.58;95.70;101859.53;6272419;28;20056;-76
2021/06/24 02:11:48;;;;;;;26.85;7.85;;;;;;;14.60;95.63;101855.00;6272711;28;20049;-76
2021/06/24 02:14:50;;;;;;;15.38;7.07;;;;;;;14.53;96.20;101847.47;6272275;28;20515;-76
2021/06/24 02:17:51;;;;;;;14.00;6.78;;;;;;;14.61;96.97;101846.13;6272623;28;20041;-76
2021/06/24 02:20:52;;;;;;;16.88;6.90;;;;;;;14.48;96.59;101847.69;6272377;28;20048;-76
2021/06/24 02:23:54;;;;;;;15.68;6.35;;;;;;;14.43;97.27;101834.69;6272295;28;20181;-76
2021/06/24 02:26:56;;;;;;;15.20;6.65;;;;;;;14.43;98.11;101828.53;6272017;28;20072;-76
2021/06/24 02:29:58;;;;;;;14.80;7.07;;;;;;;14.50;97.61;101827.34;6251708;28;20057;-76
2021/06/24 02:32:59;;;;;;;13.68;6.38;;;;;;;14.58;97.18;101827.78;6247568;28;20417;-77
2021/06/24 02:36:01;;;;;;;14.68;6.50;;;;;;;14.59;97.05;101815.41;6247409;28;20053;-76
2021/06/24 02:39:03;;;;;;;15.93;6.60;;;;;;;14.47;97.93;101811.59;6247445;28;20485;-76
2021/06/24 02:42:07;;;;;;;17.77;8.80;;;;;;;14.49;98.21;101817.69;6247169;28;20061;-76
2021/06/24 02:45:11;;;;;;;17.50;7.50;;;;;;;14.56;97.92;101820.88;6247245;28;20394;-76
2021/06/24 02:48:12;;;;;;;12.27;7.22;;;;;;;14.45;98.92;101814.31;6266308;28;20075;-76
2021/06/24 02:51:14;;;;;;;23.48;7.72;;;;;;;14.41;98.55;101817.19;6271686;28;20045;-75
2021/06/24 02:54:15;;;;;;;18.70;7.38;;;;;;;14.39;98.78;101816.41;6271499;28;20393;-76
2021/06/24 02:57:19;;;;;;;13.35;7.05;;;;;;;14.34;99.88;101810.50;6271616;28;20515;-76
2021/06/24 03:00:21;;;;;;;16.52;7.15;;;;;;;14.37;99.99;101813.84;6270029;28;20044;-77
2021/06/24 03:03:23;;;;;;;12.45;6.07;;;;;;;14.40;99.30;101807.56;6271917;28;20052;-77
2021/06/24 03:06:25;;;;;;;12.38;6.63;;;;;;;14.39;98.81;101801.41;6271355;28;20423;-76
2021/06/24 03:09:27;;;;;;;17.83;7.00;;;;;;;14.52;98.27;101812.22;6271130;28;20048;-77
2021/06/24 03:12:29;;;;;;;12.50;6.40;;;;;;;14.43;98.76;101805.59;6271443;28;20055;-76
2021/06/24 03:15:32;;;;;;;14.85;7.00;;;;;;;14.47;98.73;101809.78;6271541;28;20048;-75
2021/06/24 03:18:34;;;;;;;22.25;6.80;;;;;;;14.46;97.79;101797.50;6271528;28;20055;-75
2021/06/24 03:21:35;;;;;;;13.38;6.38;;;;;;;14.31;98.95;101795.69;6271373;28;20056;-76
2021/06/24 03:24:36;;;;;;;17.08;7.47;;;;;;;14.36;100.00;101806.00;6271491;28;20049;-76
2021/06/24 03:27:39;;;;;;;16.63;7.30;;;;;;;14.41;100.00;101802.19;6267825;28;20064;-75
2021/06/24 03:30:41;;;;;;;14.77;7.57;;;;;;;14.41;100.00;101798.69;6267858;28;20044;-77
2021/06/24 03:33:43;;;;;;;14.77;6.82;;;;;;;14.52;100.00;101806.09;6271498;28;20492;-76
2021/06/24 03:36:44;;;;;;;16.02;6.93;;;;;;;14.37;99.89;101805.06;6271383;28;20052;-76
2021/06/24 03:39:48;;;;;;;17.50;8.25;;;;;;;14.37;100.00;101805.06;6271151;28;20049;-76
2021/06/24 03:42:51;;;;;;;16.67;7.78;;;;;;;14.34;100.00;101799.94;6271216;28;20053;-76
2021/06/24 03:45:53;;;;;;;17.88;7.60;;;;;;;14.37;100.00;101805.94;6271320;28;20107;-76
2021/06/24 03:48:55;;;;;;;13.55;6.85;;;;;;;14.38;100.00;101807.63;6270774;28;20049;-75
2021/06/24 03:51:57;;;;;;;17.55;6.72;;;;;;;14.43;100.00;101805.59;6271426;28;20057;-77
2021/06/24 03:54:58;;;;;;;17.70;7.30;;;;;;;14.37;100.00;101805.94;6270960;28;20052;-75
2021/06/24 03:58:01;;;;;;;17.20;6.07;;;;;;;14.39;100.00;101808.47;6265753;28;20500;-76
2021/06/24 04:01:02;;;;;;;18.05;6.63;;;;;;;14.33;99.93;101811.47;6246400;28;20046;-77
2021/06/24 04:04:04;;;;;;;14.52;6.43;;;;;;;14.35;99.45;101817.50;6246572;28;20056;-76
2021/06/24 04:07:06;;;;;;;23.35;6.50;;;;;;;14.30;100.00;101822.19;6245975;28;20497;-77
2021/06/24 04:10:08;;;;;;;15.82;6.78;;;;;;;14.21;100.00;101818.22;6246446;28;20049;-77
2021/06/24 04:13:10;;;;;;;10.20;6.20;;;;;;;14.29;100.00;101813.41;6246408;28;20054;-76
2021/06/24 04:16:12;;;;;;;12.02;5.80;;;;;;;14.38;99.90;101804.13;6245847;28;20071;-76
2021/06/24 04:19:16;;;;;;;12.65;5.70;;;;;;;14.29;100.00;101809.91;6246209;28;20049;-76
2021/06/24 04:22:18;;;;;;;13.43;6.05;;;;;;;14.37;99.02;101811.22;6246148;28;20064;-76
2021/06/24 04:25:19;;;;;;;14.07;6.00;;;;;;;14.18;100.00;101821.03;6246978;28;20409;-76
2021/06/24 04:28:22;;;;;;;14.98;6.40;;;;;;;14.23;100.00;101813.72;6251168;28;20061;-77
2021/06/24 04:31:24;;;;;;;14.27;5.88;;;;;;;14.30;99.99;101819.53;6250124;28;20656;-76
2021/06/24 04:34:25;;;;;;;16.10;6.25;;;;;;;14.25;100.00;101813.63;6250143;28;20050;-76
2021/06/24 04:37:26;;;;;;;15.48;6.05;;;;;;;14.27;100.00;101815.28;6251235;28;20052;-76
2021/06/24 04:40:28;;;;;;;14.20;6.45;;;;;;;14.27;100.00;101809.13;6249802;28;20058;-76
2021/06/24 04:43:31;;;;;;;14.48;5.97;;;;;;;14.37;100.00;101815.66;6250274;28;20140;-76
2021/06/24 04:46:33;;;;;;;16.00;6.40;;;;;;;14.28;100.00;101803.75;6249751;28;20053;-75
2021/06/24 04:49:34;;;;;;;10.50;5.45;;;;;;;14.29;100.00;101799.31;6249472;28;20045;-75
2021/06/24 04:52:35;;;;;;;18.80;6.00;;;;;;;14.33;100.00;101812.31;6249707;28;20072;-74
2021/06/24 04:55:39;;;;;;;16.58;6.10;;;;;;;14.33;99.20;101807.00;6249423;28;20064;-75
2021/06/24 04:58:42;;;;;;;11.88;5.70;;;;;;;14.31;100.00;101810.69;6250390;28;20046;-75
2021/06/24 05:01:43;;;;;;;12.70;5.30;;;;;;;14.38;100.00;101802.34;6249227;28;20053;-75
2021/06/24 05:04:44;;;;;;;13.52;5.53;;;;;;;14.40;100.00;101805.78;6278106;22;20048;-77
2021/06/24 05:07:46;;;;;;;12.98;5.43;;;;;;;14.42;100.00;101800.41;6273049;28;20057;-77
2021/06/24 05:10:47;;;;;;;13.05;6.43;;;;;;;14.57;98.70;101802.25;6290474;28;20518;-77
2021/06/24 05:13:50;;;;;;;14.63;5.80;;;;;;;14.57;97.91;101807.53;6291699;28;20045;-78
2021/06/24 05:16:52;;;;;;;15.35;5.55;;;;;;;14.41;98.75;101796.91;6288457;28;20052;-77
2021/06/24 05:19:53;;;;;;;9.88;5.60;;;;;;;14.49;98.34;101798.31;6298123;28;20488;-77
2021/06/24 05:22:55;;;;;;;10.15;4.90;;;;;;;14.39;99.90;101803.19;6298019;28;20048;-77
2021/06/24 05:25:57;;;;;;;18.20;5.78;;;;;;;14.57;99.34;101802.25;6298579;28;20044;-77
2021/06/24 05:28:59;;;;;;;12.85;5.57;;;;;;;14.59;97.84;101807.47;6297884;28;20044;-77
2021/06/24 05:32:01;;;;;;;11.70;6.22;;;;;;;14.42;99.44;101809.19;6298090;28;20041;-77
2021/06/24 05:35:02;;;;;;;19.73;5.70;;;;;;;14.36;99.60;101798.94;6296967;28;20048;-77
2021/06/24 05:38:03;;;;;;;13.18;6.05;;;;;;;14.37;98.97;101811.22;6296422;28;20052;-77
2021/06/24 05:41:05;;;;;;;13.00;5.85;;;;;;;14.36;99.51;101811.31;6298300;28;20048;-77
2021/06/24 05:44:08;;;;;;;8.68;5.18;;;;;;;14.39;99.07;101803.19;6298081;28;20052;-78
2021/06/24 05:47:09;;;;;;;11.57;5.68;;;;;;;14.36;100.00;101806.00;6298058;28;20051;-77
2021/06/24 05:50:11;;;;;;;13.43;5.10;;;;;;;14.57;97.26;101807.53;6297635;28;20496;-78
2021/06/24 05:53:12;;;;;;;8.30;5.38;;;;;;;14.56;96.91;101800.53;6297969;28;20057;-77
2021/06/24 05:56:13;;;;;;;11.80;6.00;;;;;;;14.55;97.97;101801.50;6297422;28;20045;-77
2021/06/24 05:59:16;;;;;;;13.52;6.10;;;;;;;14.55;97.13;101806.78;6297345;28;20053;-75
2021/06/24 06:02:18;;;;;;;16.23;6.03;;;;;;;14.44;99.11;101814.38;6297784;28;20062;-77
2021/06/24 06:05:19;;;;;;;14.48;5.43;;;;;;;14.48;98.55;101810.69;6297087;28;20052;-77
2021/06/24 06:08:22;;;;;;;8.02;5.40;;;;;;;14.56;97.93;101816.41;6297075;28;20412;-78
2021/06/24 06:11:23;;;;;;;9.27;5.75;;;;;;;14.52;98.62;101816.66;6297328;28;20483;-77
2021/06/24 06:14:26;;;;;;;16.30;5.80;;;;;;;14.57;97.63;101804.91;6297349;28;20162;-78
2021/06/24 06:17:27;;;;;;;14.82;5.68;;;;;;;14.67;96.65;101799.97;6296891;28;20048;-77
2021/06/24 06:20:29;;;;;;;13.60;6.05;;;;;;;14.72;96.20;101795.31;6297343;28;20072;-77
2021/06/24 06:23:30;;;;;;;13.10;6.18;;;;;;;14.57;96.92;101807.53;6296943;28;20052;-75
2021/06/24 06:26:32;;;;;;;17.05;6.20;;;;;;;14.43;98.70;101805.59;6296929;28;20048;-76
2021/06/24 06:29:35;;;;;;;11.07;5.95;;;;;;;14.53;97.52;101802.50;6296544;28;20495;-76
2021/06/24 06:32:36;;;;;;;13.07;6.45;;;;;;;14.52;98.68;101808.72;6296753;28;20055;-75
2021/06/24 06:35:38;;;;;;;13.60;7.15;;;;;;;14.50;98.78;101800.03;6296858;28;20052;-78
2021/06/24 06:38:39;;;;;;;16.13;6.88;;;;;;;14.68;97.37;101802.56;6296391;28;20052;-77
2021/06/24 06:41:41;;;;;;;13.75;6.65;;;;;;;14.76;99.97;101804.78;6296965;28;20059;-77
2021/06/24 06:44:43;;;;;;;21.00;6.72;;;;;;;14.77;98.17;101809.13;6299739;28;20048;-78
2021/06/24 06:47:45;;;;;;;23.95;6.75;;;;;;;14.79;99.59;101807.25;6298363;28;20059;-78
2021/06/24 06:50:48;;;;;;;13.23;6.88;;;;;;;14.87;98.82;101806.84;6298739;28;20087;-78
2021/06/24 06:53:49;;;;;;;11.15;6.25;;;;;;;14.87;98.27;101804.19;6300485;28;20135;-78
2021/06/24 06:56:50;;;;;;;14.52;7.00;;;;;;;14.93;97.75;101811.78;6299008;28;20067;-78
2021/06/24 06:59:53;;;;;;;18.33;6.38;;;;;;;15.06;97.29;101814.63;6298705;28;20052;-78
2021/06/24 07:02:55;;;;;;;12.68;6.32;;;;;;;15.01;97.25;101816.69;6298490;28;20076;-75
2021/06/24 07:05:56;;;;;;;26.33;8.77;;;;;;;14.95;98.55;101823.16;6298423;28;20055;-79
2021/06/24 07:08:58;;;;;;;19.95;7.60;;;;;;;15.12;98.32;101824.88;6305789;28;20052;-79
2021/06/24 07:11:59;;;;;;;14.15;6.38;;;;;;;15.13;98.57;101830.09;6305203;28;20041;-78
2021/06/24 07:15:02;;;;;;;17.98;6.95;;;;;;;15.22;97.59;101826.94;6306949;28;20060;-79
2021/06/24 07:18:04;;;;;;;16.02;6.95;;;;;;;15.27;97.62;101831.13;6301294;28;20060;-80
2021/06/24 07:21:06;;;;;;;19.58;6.97;;;;;;;15.32;96.87;101829.09;6306563;28;20416;-78
2021/06/24 07:24:08;;;;;;;11.95;7.05;;;;;;;15.27;97.48;101826.69;6303998;28;20062;-78
2021/06/24 07:27:10;;;;;;;17.65;6.47;;;;;;;15.35;97.29;101836.84;6305336;28;20052;-79
2021/06/24 07:30:14;;;;;;;11.88;6.78;;;;;;;15.41;96.50;101828.56;6298862;28;20075;-77
2021/06/24 07:33:16;;;;;;;16.33;7.75;;;;;;;15.45;96.66;101840.69;6295558;28;20051;-77
2021/06/24 07:36:17;;;;;;;13.23;6.32;;;;;;;15.45;96.75;101838.91;6299094;28;20055;-79
2021/06/24 07:39:19;;;;;;;13.98;6.75;;;;;;;15.50;95.71;101832.50;6299239;28;20040;-79
2021/06/24 07:42:20;;;;;;;8.20;5.47;;;;;;;15.57;97.09;101836.50;6299707;28;20049;-78
2021/06/24 07:45:23;;;;;;;13.38;6.82;;;;;;;15.60;96.67;101831.03;6297966;28;20094;-77
2021/06/24 07:48:24;;;;;;;8.38;5.32;;;;;;;15.65;96.76;101834.28;6295650;28;20044;-78
2021/06/24 07:51:26;;;;;;;14.15;6.40;;;;;;;15.87;96.34;101831.25;6295772;28;20052;-77
2021/06/24 07:54:27;;;;;;;14.98;6.25;;;;;;;15.89;93.78;101830.22;6296109;28;20415;-77
2021/06/24 07:57:29;;;;;;;17.80;6.45;;;;;;;15.80;94.28;101822.78;6296005;28;20048;-77
2021/06/24 08:00:33;;;;;;;16.73;6.47;;;;;;;15.85;95.85;101825.19;6297463;28;20041;-77
2021/06/24 08:03:35;;;;;;;12.50;6.03;;;;;;;16.05;96.36;101816.94;6301224;28;20049;-79
2021/06/24 08:06:37;;;;;;;14.77;6.45;;;;;;;16.12;93.56;101812.09;6301480;28;20064;-76
2021/06/24 08:09:39;;;;;;;8.95;5.53;;;;;;;16.12;92.73;101812.94;6299278;28;20495;-77
2021/06/24 08:12:41;;;;;;;20.77;6.38;;;;;;;16.05;93.23;101806.31;6300826;28;20052;-79
2021/06/24 08:15:43;;;;;;;12.40;6.20;;;;;;;16.06;95.20;101813.31;6301809;28;20052;-78
2021/06/24 08:18:45;;;;;;;13.57;6.65;;;;;;;16.17;93.77;101804.75;6301840;28;20138;-78
2021/06/24 08:21:46;;;;;;;20.13;7.30;;;;;;;16.21;94.16;101801.81;6302719;28;20068;-78
2021/06/24 08:24:48;;;;;;;10.27;6.13;;;;;;;16.30;94.69;101794.22;6301080;28;20048;-78
2021/06/24 08:27:50;;;;;;;18.20;6.10;;;;;;;16.52;92.04;101788.47;6298851;28;20058;-75
2021/06/24 08:30:55;;;;;;;14.32;6.05;;;;;;;16.55;90.51;101781.19;6297796;28;20052;-78
2021/06/24 08:33:56;;;;;;;11.13;6.53;;;;;;;16.50;92.13;101780.63;6300139;28;20135;-77
2021/06/24 08:36:58;;;;;;;10.52;6.53;;;;;;;16.37;92.31;101783.16;6302826;28;20049;-78
2021/06/24 08:39:59;;;;;;;9.82;5.38;;;;;;;16.45;93.00;101770.28;6306985;28;20056;-77
2021/06/24 08:43:01;;;;;;;16.42;6.80;;;;;;;16.58;92.74;101773.03;6301927;28;20044;-75
2021/06/24 08:46:05;;;;;;;16.58;6.50;;;;;;;16.70;88.84;101774.06;6299267;28;20049;-77
2021/06/24 08:49:06;;;;;;;12.95;6.13;;;;;;;16.62;88.43;101777.22;6296329;28;20112;-78
2021/06/24 08:52:09;;;;;;;10.82;6.38;;;;;;;16.63;90.50;101770.94;6297958;28;20044;-78
2021/06/24 08:55:11;;;;;;;12.60;6.13;;;;;;;16.83;90.69;101769.72;6299737;28;20048;-77
2021/06/24 08:58:13;;;;;;;12.05;5.70;;;;;;;17.11;91.29;101767.94;6295575;28;20052;-77
2021/06/24 09:01:15;;;;;;;12.52;5.30;;;;;;;17.22;89.32;101768.97;6297620;28;20047;-75
2021/06/24 09:04:19;;;;;;;13.80;6.40;;;;;;;17.27;86.42;101776.66;6298230;28;20404;-74
2021/06/24 09:07:21;;;;;;;15.68;5.47;;;;;;;17.29;87.38;101768.56;6297868;28;20056;-75
2021/06/24 09:10:25;;;;;;;9.10;4.63;;;;;;;17.43;85.01;101758.72;6297963;28;20053;-74
2021/06/24 09:13:26;;;;;;;9.82;4.60;;;;;;;17.54;80.41;101760.69;6297535;28;20044;-74
2021/06/24 09:16:31;;;;;;;9.52;4.43;;;;;;;17.50;81.70;101760.03;6298576;28;20052;-75
2021/06/24 09:19:33;;;;;;;14.00;5.07;;;;;;;17.56;83.58;101764.09;6295575;28;20052;-75
2021/06/24 09:22:35;;;;;;;10.35;4.13;;;;;;;17.62;84.98;101761.03;6298734;28;20048;-75
2021/06/24 09:25:37;;;;;;;11.07;4.35;;;;;;;17.74;81.62;101752.25;6297029;28;20045;-75
2021/06/24 09:28:39;;;;;;;11.02;3.42;;;;;;;17.77;77.71;101742.38;6297034;28;20431;-74
2021/06/24 09:31:43;;;;;;;7.50;3.60;;;;;;;17.89;78.22;101739.72;6297032;28;20131;-75
2021/06/24 09:34:53;;;;;;;6.03;3.58;;;;;;;17.87;79.06;101741.63;6297725;28;20049;-74
2021/06/24 09:38:02;;;;;;;10.43;4.45;;;;;;;17.85;80.44;101743.56;6296932;28;20052;-75
2021/06/24 09:41:03;;;;;;;10.57;4.18;;;;;;;17.91;82.20;101748.47;6297853;28;20048;-76
2021/06/24 09:44:19;;;;;;;8.70;4.15;;;;;;;18.16;79.93;101741.44;6297722;28;20058;-77
2021/06/24 09:47:27;;;;;;;6.35;4.15;;;;;;;18.36;78.63;101740.91;6296683;28;20059;-75
2021/06/24 09:50:28;;;;;;;16.95;6.30;;;;;;;18.58;75.29;101742.06;6296881;28;20044;-75
2021/06/24 09:53:30;;;;;;;9.98;4.68;;;;;;;18.45;79.75;101740.25;6297025;28;20060;-75
2021/06/24 09:56:33;;;;;;;14.85;5.10;;;;;;;18.34;76.47;101741.97;6297463;28;20052;-73
2021/06/24 09:59:40;;;;;;;7.72;4.70;;;;;;;18.23;77.92;101740.06;6295442;28;20419;-73
2021/06/24 10:03:05;;;;;;;11.27;4.78;;;;;;;18.24;74.08;101734.63;6297588;28;20052;-73
2021/06/24 10:06:06;;;;;;;11.05;4.55;;;;;;;17.94;76.49;101736.75;6296970;28;20048;-76
2021/06/24 10:09:08;;;;;;;8.23;4.78;;;;;;;17.84;79.37;101741.00;6295855;28;20053;-74
2021/06/24 10:12:11;;;;;;;13.00;5.40;;;;;;;17.95;78.56;101747.28;6296216;28;20049;-75
2021/06/24 10:15:13;;;;;;;9.70;4.97;;;;;;;17.85;78.08;101748.00;6297792;28;20059;-74
2021/06/24 10:18:19;;;;;;;13.63;6.28;;;;;;;18.12;75.11;101737.28;6295688;28;20407;-74
2021/06/24 10:21:23;;;;;;;8.25;4.43;;;;;;;18.02;77.92;101733.56;6295827;28;20048;-74
2021/06/24 10:24:31;;;;;;;8.18;5.10;;;;;;;18.09;76.28;101734.84;6293133;28;20059;-74
2021/06/24 10:27:35;;;;;;;7.97;4.18;;;;;;;18.38;77.76;101731.00;6295886;28;20049;-75
2021/06/24 10:30:40;;;;;;;6.40;5.00;;;;;;;18.51;74.07;101736.31;6295438;28;20514;-75
2021/06/24 10:33:56;;;;;;;10.50;5.55;;;;;;;18.59;73.12;101731.28;6295862;28;20071;-75
2021/06/24 10:37:12;;;;;;;11.75;5.85;;;;;;;18.90;71.21;101724.66;6295674;28;20488;-74
2021/06/24 10:40:24;;;;;;;8.73;5.38;;;;;;;18.68;75.01;101725.31;6295594;28;20423;-74
2021/06/24 10:43:45;;;;;;;8.77;4.80;;;;;;;19.08;74.32;101719.78;6296118;28;20051;-77
2021/06/24 10:47:03;;;;;;;11.68;6.80;;;;;;;19.10;71.11;101720.50;6295757;28;20044;-75
2021/06/24 10:50:44;;;;;;;7.93;4.53;;;;;;;19.26;70.39;101717.56;6295796;28;20055;-75
2021/06/24 10:53:48;;;;;;;7.45;3.83;;;;;;;19.56;70.37;101714.41;6296727;28;20045;-75
2021/06/24 10:56:50;;;;;;;10.77;4.75;;;;;;;19.77;69.27;101709.28;6295537;28;20055;-75
2021/06/24 10:59:52;;;;;;;8.15;3.80;;;;;;;19.90;65.33;101706.53;6295137;28;20055;-75
2021/06/24 11:02:54;;;;;;;10.43;3.92;;;;;;;20.02;69.33;101703.75;6296319;28;20055;-75
2021/06/24 11:06:09;;;;;;;8.57;4.55;;;;;;;19.62;65.38;101705.13;6295690;28;20051;-75
2021/06/24 11:09:15;;;;;;;8.13;3.78;;;;;;;19.50;69.06;101694.41;6292727;28;20052;-75
2021/06/24 11:12:50;;;;;;;6.47;4.10;;;;;;;19.37;67.22;101696.28;6296845;22;20048;-75
2021/06/24 11:15:54;;;;;;;6.85;3.80;;;;;;;19.35;65.18;101692.91;6285589;28;20056;-75
2021/06/24 11:19:00;;;;;;;7.97;3.90;;;;;;;19.18;65.93;101694.16;6286416;28;20052;-75
2021/06/24 11:22:03;;;;;;;7.32;4.05;;;;;;;19.05;67.04;101693.38;6295853;28;20060;-76
2021/06/24 11:25:08;;;;;;;6.63;4.18;;;;;;;19.24;67.94;101687.50;6295324;28;20633;-74
2021/06/24 11:28:37;;;;;;;5.50;3.70;;;;;;;19.02;70.00;101693.56;6273953;28;20075;-75
2021/06/24 11:31:43;;;;;;;11.48;4.32;;;;;;;18.98;72.15;101690.28;6271033;28;20052;-75
2021/06/24 11:34:52;;;;;;;5.80;3.40;;;;;;;19.12;72.10;101691.06;6273437;28;20037;-75
2021/06/24 11:38:00;;;;;;;5.10;3.72;;;;;;;19.29;70.99;101685.34;6282299;28;20604;-76
2021/06/24 11:41:03;;;;;;;5.15;2.90;;;;;;;19.38;70.47;101683.81;6300251;28;20048;-77
2021/06/24 11:44:06;;;;;;;7.57;4.00;;;;;;;19.59;68.10;101686.66;6300722;28;20052;-77
2021/06/24 11:47:11;;;;;;;6.93;4.15;;;;;;;19.56;68.21;101673.56;6298557;28;20045;-76
2021/06/24 12:00:34;;;;;;;11.23;3.95;;;;;;;19.60;65.85;101672.34;6299910;28;20060;-75
2021/06/24 12:03:35;;;;;;;11.00;3.97;;;;;;;19.62;65.44;101676.66;6299686;28;20046;-75
2021/06/24 12:06:41;;;;;;;7.07;4.00;;;;;;;19.65;66.45;101671.06;6275997;28;20049;-74
2021/06/24 12:09:48;;;;;;;18.17;12.20;;;;;;;19.58;69.16;101677.81;6277640;28;20625;-74
2021/06/24 12:12:49;;;;;;;11.02;4.70;;;;;;;19.91;65.82;101676.22;6289417;28;20044;-75
2021/06/24 12:15:53;;;;;;;6.90;4.10;;;;;;;19.62;66.28;101670.44;6287346;28;20048;-75
2021/06/24 12:18:54;;;;;;;7.20;3.97;;;;;;;19.53;68.04;101672.00;6286109;28;20048;-75
2021/06/24 12:21:56;;;;;;;6.78;3.65;;;;;;;19.33;70.75;101670.81;6298347;28;20427;-74
2021/06/24 12:24:59;;;;;;;6.30;3.60;;;;;;;19.17;68.98;101670.28;6299819;28;20057;-76
2021/06/24 12:28:02;;;;;;;7.85;3.75;;;;;;;19.07;71.60;101678.09;6297713;28;20413;-74
2021/06/24 12:31:06;;;;;;;7.93;3.58;;;;;;;18.95;72.90;101679.88;6299675;28;20052;-74
2021/06/24 12:34:13;;;;;;;10.23;4.25;;;;;;;18.92;70.56;101680.09;6299871;28;20048;-74
2021/06/24 12:37:28;;;;;;;6.85;3.75;;;;;;;19.05;69.48;101671.19;6299466;28;20201;-75
2021/06/24 12:40:34;;;;;;;5.25;3.53;;;;;;;18.87;70.54;101668.94;6298655;28;20055;-74
2021/06/24 12:43:36;;;;;;;9.70;3.75;;;;;;;18.84;70.59;101674.47;6299311;28;20048;-74
2021/06/24 12:46:38;;;;;;;12.18;4.25;;;;;;;18.89;69.50;101674.97;6298547;28;20462;-75
2021/06/24 12:49:39;;;;;;;8.23;3.65;;;;;;;18.72;72.03;101670.06;6299039;28;20357;-75
2021/06/24 12:52:55;;;;;;;8.63;3.60;;;;;;;18.73;72.16;101669.09;6295408;28;20047;-75
2021/06/24 12:55:59;;;;;;;7.32;3.55;;;;;;;18.73;72.78;101674.41;6298526;28;20051;-75
2021/06/24 12:59:07;;;;;;;6.47;4.15;;;;;;;18.77;71.73;101669.72;6298615;28;20051;-76
2021/06/24 13:02:09;;;;;;;9.97;3.80;;;;;;;18.63;71.16;101668.03;6299011;28;20044;-75
2021/06/24 13:05:22;;;;;;;8.15;3.67;;;;;;;18.68;72.17;101666.72;6298680;28;20294;-76
2021/06/24 13:08:25;;;;;;;6.82;3.08;;;;;;;18.74;73.33;101665.47;6298774;28;20059;-76
2021/06/24 13:11:30;;;;;;;5.22;2.72;;;;;;;18.64;73.88;101659.94;6297116;28;20044;-76
2021/06/24 13:14:32;;;;;;;8.02;3.88;;;;;;;18.71;72.00;101668.34;6292241;28;20044;-76
2021/06/24 13:17:36;;;;;;;13.88;3.78;;;;;;;18.69;72.52;101662.28;6297691;28;20041;-77
2021/06/24 13:20:38;;;;;;;7.57;3.65;;;;;;;18.70;70.85;101661.31;6298150;28;20182;-76
2021/06/24 13:23:39;;;;;;;4.68;3.50;;;;;;;18.72;71.59;101656.75;6282816;28;20098;-75
2021/06/24 13:26:43;;;;;;;5.07;3.20;;;;;;;18.74;71.34;101646.81;6273624;28;20056;-74
2021/06/24 13:29:55;;;;;;;6.65;3.65;;;;;;;18.82;71.16;101654.25;6273124;28;20496;-74
2021/06/24 13:32:57;;;;;;;10.00;3.45;;;;;;;18.90;71.12;101652.72;6273524;28;20045;-75
2021/06/24 13:35:59;;;;;;;6.18;3.30;;;;;;;18.93;73.06;101649.81;6273077;28;20045;-75
2021/06/24 13:39:02;;;;;;;8.43;4.57;;;;;;;18.92;71.51;101653.44;6272987;28;20392;-74
2021/06/24 13:42:05;;;;;;;7.05;3.33;;;;;;;18.87;71.65;101644.09;6277903;28;20044;-75
2021/06/24 13:45:07;;;;;;;13.80;4.60;;;;;;;19.00;71.81;101650.22;6298283;28;20047;-74
2021/06/24 13:48:08;;;;;;;12.57;4.53;;;;;;;19.10;71.23;101643.25;6297739;28;20044;-75
2021/06/24 13:51:10;;;;;;;11.52;4.95;;;;;;;19.03;69.93;101652.69;6297700;28;20419;-76
2021/06/24 13:54:12;;;;;;;9.95;4.32;;;;;;;19.10;71.74;101643.25;6297851;28;20045;-76
2021/06/24 13:57:19;;;;;;;7.40;4.10;;;;;;;19.09;71.47;101646.03;6296596;28;20055;-76
2021/06/24 14:00:21;;;;;;;7.55;4.28;;;;;;;19.21;71.75;101645.09;6297549;28;20393;-75
2021/06/24 14:03:22;;;;;;;7.70;4.85;;;;;;;19.26;70.25;101635.81;6297406;28;20044;-75
2021/06/24 14:06:25;;;;;;;8.70;4.63;;;;;;;19.37;70.53;101648.31;6297392;28;20083;-74
2021/06/24 14:09:27;;;;;;;10.80;4.95;;;;;;;19.28;71.54;101646.34;6297114;28;20101;-75
2021/06/24 14:12:29;;;;;;;8.30;4.95;;;;;;;19.23;72.65;101643.16;6296458;28;20488;-75
2021/06/24 14:15:31;;;;;;;7.40;4.82;;;;;;;19.22;70.93;101645.00;6297451;28;20388;-75